createdAt,value
2018-12-08T01:14:06.103Z,5.40
2018-12-08T01:49:18.714Z,7.47
2018-12-08T01:52:02.002Z,7.43
2018-12-08T01:54:44.957Z,8.20
2018-12-08T02:00:10.253Z,6.90
2018-12-08T02:02:54.567Z,7.40
2018-12-08T02:24:32.275Z,6.97
2018-12-08T02:42:24.400Z,6.30
2018-12-08T02:45:07.415Z,6.13
2018-12-08T02:47:50.090Z,5.87
2018-12-08T02:50:32.581Z,7.00
2018-12-08T02:53:18.659Z,7.00
2018-12-08T02:56:06.616Z,6.27
2018-12-08T02:58:49.720Z,6.33
2018-12-08T03:01:35.627Z,6.80
2018-12-08T03:04:36.706Z,5.07
2018-12-08T03:07:20.348Z,6.20
2018-12-08T03:10:06.592Z,5.43
2018-12-08T03:12:55.067Z,4.77
2018-12-08T03:15:42.693Z,5.07
2018-12-08T03:18:27.628Z,4.70
2018-12-08T03:21:10.220Z,4.67
2018-12-08T03:23:53.859Z,4.17
2018-12-08T03:26:42.883Z,5.43
2018-12-08T03:29:30.308Z,4.33
2018-12-08T03:32:15.696Z,5.17
2018-12-08T03:35:01.668Z,4.90
2018-12-08T03:37:45.169Z,4.70
2018-12-08T03:40:28.166Z,4.60
2018-12-08T03:43:13.190Z,4.43
2018-12-08T03:45:57.317Z,3.93
2018-12-08T03:48:48.509Z,4.43
2018-12-08T03:51:33.244Z,3.97
2018-12-08T03:54:24.566Z,4.37
2018-12-08T04:00:00.485Z,4.50
2018-12-08T04:03:01.211Z,3.33
2018-12-08T04:05:53.618Z,4.20
2018-12-08T04:08:43.971Z,2.97
2018-12-08T04:11:36.522Z,3.77
2018-12-08T04:15:03.744Z,3.87
2018-12-08T04:58:46.115Z,3.43
2018-12-08T05:01:37.024Z,2.77
2018-12-08T05:04:29.509Z,3.17
2018-12-08T05:07:26.872Z,2.37
2018-12-08T05:10:42.393Z,2.80
2018-12-08T05:13:59.655Z,2.70
2018-12-08T05:20:56.845Z,2.53
2018-12-08T05:28:44.210Z,2.57
2018-12-08T05:31:27.051Z,2.80
2018-12-08T05:34:09.609Z,1.93
2018-12-08T05:36:53.543Z,2.20
2018-12-08T05:39:37.850Z,2.30
2018-12-08T05:42:33.220Z,2.10
2018-12-08T05:45:16.833Z,2.03
2018-12-08T05:48:01.602Z,2.50
2018-12-08T05:50:45.387Z,2.10
2018-12-08T05:53:29.342Z,2.10
2018-12-08T05:56:21.310Z,2.43
2018-12-08T05:59:03.942Z,2.10
2018-12-08T06:01:48.015Z,2.37
2018-12-08T06:04:31.201Z,2.77
2018-12-08T06:07:14.512Z,2.30
2018-12-08T06:09:58.066Z,2.27
2018-12-08T06:12:41.802Z,2.07
2018-12-08T06:15:28.603Z,2.23
2018-12-08T06:18:13.648Z,2.13
2018-12-08T06:20:57.181Z,1.83
2018-12-08T06:23:54.814Z,1.87
2018-12-08T06:31:00.410Z,1.70
2018-12-08T06:34:11.129Z,2.33
2018-12-08T06:44:52.439Z,2.20
2018-12-08T06:51:24.523Z,2.13
2018-12-08T06:54:22.535Z,2.00
2018-12-08T06:57:05.470Z,1.83
2018-12-08T06:59:49.234Z,2.60
2018-12-08T07:02:34.343Z,2.07
2018-12-08T07:05:20.672Z,1.80
2018-12-08T07:08:04.045Z,1.50
2018-12-08T07:10:46.478Z,2.30
2018-12-08T07:13:30.457Z,2.13
2018-12-08T07:16:13.053Z,3.33
2018-12-08T07:21:44.450Z,2.23
2018-12-08T07:24:30.245Z,1.77
2018-12-08T07:27:14.591Z,2.53
2018-12-08T07:29:58.121Z,1.93
2018-12-08T07:32:41.338Z,2.47
2018-12-08T07:35:24.401Z,2.60
2018-12-08T07:38:06.786Z,2.13
2018-12-08T07:40:53.023Z,1.80
2018-12-08T07:43:35.347Z,2.37
2018-12-08T07:46:18.291Z,2.37
2018-12-08T07:49:00.687Z,2.10
2018-12-08T07:51:44.083Z,2.20
2018-12-08T07:54:28.146Z,2.13
2018-12-08T07:57:11.097Z,1.77
2018-12-08T07:59:54.453Z,1.93
2018-12-08T08:02:37.562Z,2.40
2018-12-08T08:05:20.804Z,1.97
2018-12-08T08:08:03.696Z,1.90
2018-12-08T08:10:45.923Z,2.10
2018-12-08T08:13:28.998Z,1.90
2018-12-08T08:16:12.054Z,1.90
2018-12-08T08:18:55.765Z,2.20
2018-12-08T08:21:38.984Z,1.80
2018-12-08T08:24:23.360Z,2.93
2018-12-08T08:27:06.085Z,2.23
2018-12-08T08:29:49.117Z,2.30
2018-12-08T08:32:33.933Z,2.33
2018-12-08T08:35:18.918Z,2.27
2018-12-08T08:38:02.240Z,2.53
2018-12-08T08:40:45.779Z,2.00
2018-12-08T08:43:29.394Z,2.20
2018-12-08T08:46:20.004Z,1.87
2018-12-08T08:49:03.491Z,2.20
2018-12-08T08:51:46.679Z,1.93
2018-12-08T08:54:39.338Z,1.73
2018-12-08T08:57:25.374Z,2.73
2018-12-08T09:00:14.235Z,2.00
2018-12-08T09:02:57.126Z,2.17
2018-12-08T09:05:47.480Z,1.80
2018-12-08T09:08:35.570Z,2.07
2018-12-08T09:11:18.674Z,2.20
2018-12-08T09:14:01.860Z,1.90
2018-12-08T09:16:45.830Z,1.97
2018-12-08T09:19:30.169Z,1.90
2018-12-08T09:22:12.809Z,1.80
2018-12-08T09:24:55.367Z,2.13
2018-12-08T09:27:38.140Z,1.80
2018-12-08T09:30:20.744Z,1.60
2018-12-08T09:33:04.706Z,1.87
2018-12-08T09:35:49.435Z,1.83
2018-12-08T09:38:31.866Z,1.57
2018-12-08T09:41:16.228Z,2.07
2018-12-08T09:43:59.429Z,1.70
2018-12-08T09:46:43.639Z,2.43
2018-12-08T09:49:33.618Z,1.90
2018-12-08T09:52:16.529Z,2.03
2018-12-08T09:55:00.213Z,1.97
2018-12-08T09:57:45.298Z,1.63
2018-12-08T10:00:35.829Z,1.87
2018-12-08T10:03:19.124Z,1.97
2018-12-08T10:06:03.407Z,2.53
2018-12-08T10:08:46.313Z,2.00
2018-12-08T10:11:31.714Z,2.50
2018-12-08T10:14:19.660Z,2.93
2018-12-08T10:17:03.229Z,2.50
2018-12-08T10:19:54.342Z,2.10
2018-12-08T10:22:41.463Z,2.40
2018-12-08T10:25:41.494Z,1.83
2018-12-08T10:28:24.812Z,2.07
2018-12-08T10:31:07.852Z,2.10
2018-12-08T10:33:50.392Z,1.90
2018-12-08T10:36:38.505Z,2.43
2018-12-08T10:39:30.492Z,1.80
2018-12-08T10:42:18.163Z,2.40
2018-12-08T10:45:03.140Z,1.80
2018-12-08T10:47:47.493Z,2.33
2018-12-08T10:50:35.049Z,2.33
2018-12-08T10:53:33.987Z,2.30
2018-12-08T10:56:34.751Z,2.33
2018-12-08T10:59:17.981Z,2.37
2018-12-08T11:02:12.206Z,1.90
2018-12-08T11:05:08.602Z,2.50
2018-12-08T11:11:07.718Z,2.40
2018-12-08T11:13:58.958Z,2.60
2018-12-08T11:16:42.510Z,2.73
2018-12-08T11:33:37.053Z,2.90
2018-12-08T11:40:20.617Z,2.60
2018-12-08T11:43:14.825Z,3.60
2018-12-08T11:46:11.753Z,2.73
2018-12-08T11:49:09.497Z,2.50
2018-12-08T11:55:16.523Z,2.97
2018-12-08T11:58:08.915Z,2.53
2018-12-08T12:00:55.067Z,3.00
2018-12-08T12:03:38.002Z,3.07
2018-12-08T12:06:21.420Z,3.73
2018-12-08T12:09:05.141Z,2.53
2018-12-08T12:11:47.986Z,2.60
2018-12-08T12:14:51.712Z,3.07
2018-12-08T12:17:35.325Z,2.93
2018-12-08T12:20:18.717Z,3.20
2018-12-08T12:23:01.402Z,3.23
2018-12-08T12:25:45.373Z,2.60
2018-12-08T12:28:28.494Z,3.47
2018-12-08T12:31:11.963Z,3.40
2018-12-08T12:33:55.130Z,2.93
2018-12-08T12:36:38.430Z,3.03
2018-12-08T12:39:22.008Z,3.03
2018-12-08T12:42:05.411Z,2.70
2018-12-08T12:44:49.179Z,2.43
2018-12-08T12:47:34.898Z,3.07
2018-12-08T12:50:17.724Z,3.77
2018-12-08T12:53:00.080Z,2.80
2018-12-08T12:55:42.912Z,3.40
2018-12-08T12:58:25.421Z,3.40
2018-12-08T13:01:08.005Z,3.43
2018-12-08T13:03:50.786Z,2.97
2018-12-08T13:06:33.590Z,2.90
2018-12-08T13:09:15.983Z,3.97
2018-12-08T13:11:59.787Z,2.77
2018-12-08T13:14:42.435Z,3.30
2018-12-08T13:17:25.774Z,3.90
2018-12-08T13:20:08.857Z,3.30
2018-12-08T13:22:51.406Z,3.57
2018-12-08T13:25:34.814Z,3.60
2018-12-08T13:28:17.739Z,3.93
2018-12-08T13:31:00.918Z,3.90
2018-12-08T13:33:44.631Z,3.67
2018-12-08T13:36:28.033Z,3.60
2018-12-08T13:39:10.644Z,3.50
2018-12-08T13:41:53.288Z,3.87
2018-12-08T13:44:38.938Z,3.60
2018-12-08T13:47:21.706Z,3.07
2018-12-08T13:50:04.211Z,3.77
2018-12-08T13:52:48.301Z,3.03
2018-12-08T13:55:30.788Z,3.60
2018-12-08T13:58:13.871Z,3.23
2018-12-08T14:00:56.953Z,3.50
2018-12-08T14:03:40.300Z,3.03
2018-12-08T14:06:25.834Z,3.27
2018-12-08T14:09:08.871Z,3.70
2018-12-08T14:11:51.947Z,3.53
2018-12-08T14:14:34.836Z,2.80
2018-12-08T14:17:18.121Z,3.10
2018-12-08T14:20:10.643Z,3.40
2018-12-08T14:22:53.663Z,4.00
2018-12-08T14:25:36.494Z,3.50
2018-12-08T14:28:20.001Z,2.50
2018-12-08T14:31:08.192Z,2.87
2018-12-08T14:33:52.819Z,3.73
2018-12-08T14:36:36.142Z,3.30
2018-12-08T14:39:18.841Z,2.23
2018-12-08T14:42:01.358Z,2.77
2018-12-08T14:44:44.075Z,2.77
2018-12-08T14:47:26.725Z,3.13
2018-12-08T14:50:10.974Z,2.43
2018-12-08T14:52:54.029Z,4.60
2018-12-08T14:55:36.766Z,4.10
2018-12-08T14:58:19.460Z,3.70
2018-12-08T15:01:05.029Z,4.20
2018-12-08T15:03:49.785Z,3.73
2018-12-08T15:06:32.524Z,3.50
2018-12-08T15:09:17.414Z,4.07
2018-12-08T15:12:00.264Z,3.63
2018-12-08T15:14:43.577Z,3.50
2018-12-08T15:17:26.298Z,4.10
2018-12-08T15:20:10.013Z,3.83
2018-12-08T15:22:53.574Z,3.73
2018-12-08T15:25:36.337Z,3.93
2018-12-08T15:28:18.980Z,3.60
2018-12-08T15:31:01.779Z,4.17
2018-12-08T15:33:48.511Z,3.90
2018-12-08T15:36:32.027Z,5.97
2018-12-08T15:39:15.317Z,4.53
2018-12-08T15:42:00.187Z,9.87
2018-12-08T15:44:44.114Z,9.40
2018-12-08T15:47:28.484Z,8.23
2018-12-08T15:50:18.028Z,15.33
2018-12-08T15:53:02.578Z,6.63
2018-12-08T15:56:00.035Z,6.97
2018-12-08T15:58:43.146Z,7.17
2018-12-08T16:01:28.762Z,5.03
2018-12-08T16:04:13.327Z,4.47
2018-12-08T16:06:58.877Z,4.00
2018-12-08T16:09:43.701Z,5.00
2018-12-08T16:12:26.705Z,6.60
2018-12-08T16:15:10.413Z,8.07
2018-12-08T16:18:05.100Z,7.07
2018-12-08T16:20:51.398Z,4.90
2018-12-08T16:23:34.529Z,4.13
2018-12-08T16:26:18.130Z,3.90
2018-12-08T16:29:00.595Z,5.93
2018-12-08T16:31:43.704Z,6.17
2018-12-08T16:34:26.826Z,4.80
2018-12-08T16:37:10.597Z,4.10
2018-12-08T16:39:53.337Z,4.80
2018-12-08T16:42:40.006Z,3.90
2018-12-08T16:45:23.548Z,4.00
2018-12-08T16:48:11.456Z,4.23
2018-12-08T16:50:54.272Z,3.93
2018-12-08T16:53:36.986Z,4.30
2018-12-08T16:56:20.331Z,4.20
2018-12-08T16:59:03.443Z,4.37
2018-12-08T17:01:52.432Z,4.27
2018-12-08T17:04:35.978Z,4.13
2018-12-08T17:07:18.833Z,3.90
2018-12-08T17:10:02.989Z,4.03
2018-12-08T17:12:45.762Z,3.67
2018-12-08T17:15:28.575Z,4.40
2018-12-08T17:18:11.573Z,4.53
2018-12-08T17:20:54.312Z,4.63
2018-12-08T17:23:36.887Z,4.27
2018-12-08T17:26:19.509Z,4.13
2018-12-08T17:29:02.217Z,3.30
2018-12-08T17:31:44.982Z,3.70
2018-12-08T17:34:27.605Z,4.20
2018-12-08T17:37:11.046Z,4.43
2018-12-08T17:39:54.155Z,4.67
2018-12-08T17:42:41.258Z,4.00
2018-12-08T17:45:23.536Z,3.97
2018-12-08T17:48:07.558Z,3.70
2018-12-08T17:50:50.749Z,4.90
2018-12-08T17:53:34.599Z,3.80
2018-12-08T17:56:24.883Z,4.53
2018-12-08T17:59:08.550Z,4.07
2018-12-08T18:01:51.996Z,4.03
2018-12-08T18:04:36.370Z,3.80
2018-12-08T18:07:20.194Z,3.10
2018-12-08T18:10:10.506Z,3.90
2018-12-08T18:12:54.169Z,4.10
2018-12-08T18:15:37.486Z,3.97
2018-12-08T18:18:24.162Z,4.40
2018-12-08T18:21:13.160Z,3.90
2018-12-08T18:23:55.734Z,4.80
2018-12-08T18:26:39.833Z,3.50
2018-12-08T18:29:23.082Z,3.90
2018-12-08T18:38:12.655Z,3.73
2018-12-08T18:41:01.215Z,4.10
2018-12-08T18:44:18.619Z,3.80
2018-12-08T18:47:01.466Z,3.93
2018-12-08T18:49:44.234Z,4.03
2018-12-08T18:52:58.574Z,3.43
2018-12-08T18:55:45.794Z,3.73
2018-12-08T18:58:33.108Z,3.23
2018-12-08T19:01:38.241Z,3.53
2018-12-08T19:04:27.016Z,3.90
2018-12-08T19:07:15.207Z,3.23
2018-12-08T19:09:58.466Z,3.77
2018-12-08T19:12:46.259Z,3.50
2018-12-08T19:15:37.950Z,4.30
2018-12-08T19:18:34.835Z,3.97
2018-12-08T19:21:54.776Z,4.00
2018-12-08T19:38:02.583Z,4.10
2018-12-08T19:43:58.217Z,4.23
2018-12-08T19:46:42.309Z,4.20
2018-12-08T19:49:26.015Z,3.20
2018-12-08T19:55:49.011Z,2.97
2018-12-08T20:05:23.388Z,2.50
2018-12-08T20:08:37.858Z,2.70
2018-12-08T20:11:41.306Z,3.03
2018-12-08T20:14:36.815Z,3.23
2018-12-08T20:17:40.631Z,4.00
2018-12-08T20:23:28.506Z,4.83
2018-12-08T20:26:20.050Z,3.80
2018-12-08T20:29:19.974Z,3.40
2018-12-08T20:32:19.659Z,4.70
2018-12-08T20:35:06.104Z,3.57
2018-12-08T20:38:11.321Z,3.20
2018-12-08T20:50:13.202Z,3.00
2018-12-08T20:53:11.905Z,3.00
2018-12-08T20:56:17.250Z,3.30
2018-12-08T20:59:25.863Z,3.30
2018-12-08T21:02:22.887Z,2.77
2018-12-08T21:05:23.028Z,3.87
2018-12-08T21:08:21.498Z,3.80
2018-12-08T21:11:11.914Z,3.50
2018-12-08T21:14:01.875Z,3.20
2018-12-08T21:22:24.104Z,3.43
2018-12-08T21:25:07.624Z,5.40
2018-12-08T21:28:04.305Z,4.87
2018-12-08T21:30:56.580Z,5.97
2018-12-08T21:33:50.329Z,3.80
2018-12-08T21:39:52.838Z,2.70
2018-12-08T21:42:36.151Z,2.90
2018-12-08T21:45:38.291Z,3.93
2018-12-08T21:48:25.159Z,3.63
2018-12-08T21:51:19.362Z,3.50
2018-12-08T21:54:07.643Z,3.63
2018-12-08T21:56:51.302Z,4.73
2018-12-08T21:59:35.025Z,3.70
2018-12-08T22:02:19.777Z,3.33
2018-12-08T22:05:04.719Z,3.00
2018-12-08T22:07:50.407Z,3.13
2018-12-08T22:10:41.497Z,3.70
2018-12-08T22:13:25.380Z,2.67
2018-12-08T22:16:08.929Z,2.77
2018-12-08T22:18:53.210Z,3.33
2018-12-08T22:21:41.558Z,3.17
2018-12-08T22:24:31.080Z,2.70
2018-12-08T22:27:19.283Z,3.13
2018-12-08T22:30:03.609Z,3.60
2018-12-08T22:33:25.165Z,2.87
2018-12-08T22:36:09.166Z,2.70
2018-12-08T22:42:22.802Z,3.13
2018-12-08T22:45:28.383Z,2.97
2018-12-08T22:48:12.014Z,2.43
2018-12-08T22:50:56.850Z,2.80
2018-12-08T22:53:40.553Z,2.40
2018-12-08T22:56:37.179Z,2.30
2018-12-08T22:59:20.578Z,2.00
2018-12-08T23:02:03.143Z,2.97
2018-12-08T23:04:45.765Z,2.40
2018-12-08T23:07:28.475Z,3.23
2018-12-08T23:10:11.887Z,2.60
2018-12-08T23:13:02.169Z,2.13
2018-12-08T23:18:46.347Z,2.17
2018-12-08T23:21:29.650Z,2.53
2018-12-08T23:45:46.696Z,2.80
2018-12-08T23:48:40.453Z,2.30
2018-12-08T23:51:47.498Z,2.60
2018-12-08T23:54:42.254Z,1.80
2018-12-08T23:57:25.008Z,2.67
